Time;durP1;ratioP1;P1;durP2;ratioP2;P2;SDS_P1;SDS_P2;PMS_P1;PMS_P2;Temp;Humidity;BMP_temperature;BMP_pressure;BME280_temperature;BME280_humidity;BME280_pressure;Samples;Min_cycle;Max_cycle;Signal;HPM_P1;HPM_P2
2023/10/21 00:01:05;;;;;;;1.80;1.27;;;;;;;;;;5084631;28;20465;-93
2023/10/21 00:03:32;;;;;;;4.40;1.30;;;;;;;;;;5088725;28;20507;-92
2023/10/21 00:06:00;;;;;;;2.10;1.20;;;;;;;;;;5089213;28;20463;-92
2023/10/21 00:08:27;;;;;;;2.10;1.00;;;;;;;;;;5089291;28;20950;-92
2023/10/21 00:11:03;;;;;;;2.03;1.20;;;;;;;;;;5085183;28;20466;-92
2023/10/21 00:13:31;;;;;;;3.00;0.90;;;;;;;;;;5085190;28;20444;-92
2023/10/21 00:15:58;;;;;;;1.70;1.00;;;;;;;;;;5085414;28;21046;-92
2023/10/21 00:18:26;;;;;;;1.90;1.13;;;;;;;;;;5086151;28;20443;-92
2023/10/21 00:20:54;;;;;;;2.87;1.60;;;;;;;;;;5081474;28;20435;-92
2023/10/21 00:23:22;;;;;;;2.10;1.60;;;;;;;;;;5081954;28;20901;-92
2023/10/21 00:25:49;;;;;;;3.67;1.60;;;;;;;;;;5089885;28;20475;-92
2023/10/21 00:28:18;;;;;;;2.07;1.10;;;;;;;;;;5083940;28;20510;-91
2023/10/21 00:30:48;;;;;;;2.30;1.30;;;;;;;;;;5086995;28;20448;-92
2023/10/21 00:33:15;;;;;;;4.20;1.10;;;;;;;;;;5086121;28;20963;-92
2023/10/21 00:35:45;;;;;;;1.80;1.10;;;;;;;;;;5085483;28;20499;-92
2023/10/21 00:38:13;;;;;;;2.60;1.20;;;;;;;;;;5090936;28;20458;-93
2023/10/21 00:40:40;;;;;;;1.70;1.10;;;;;;;;;;5091698;28;20473;-91
2023/10/21 00:43:07;;;;;;;4.43;1.37;;;;;;;;;;5093638;28;20467;-92
2023/10/21 00:45:36;;;;;;;2.27;1.33;;;;;;;;;;5097045;28;20528;-92
2023/10/21 00:48:04;;;;;;;2.43;1.30;;;;;;;;;;5090508;28;20489;-92
2023/10/21 00:50:32;;;;;;;2.00;1.00;;;;;;;;;;5095124;28;20820;-91
2023/10/21 00:52:59;;;;;;;2.73;1.60;;;;;;;;;;5091982;28;20439;-92
2023/10/21 00:55:27;;;;;;;3.03;2.00;;;;;;;;;;5095469;28;20464;-92
2023/10/21 00:57:54;;;;;;;2.80;2.17;;;;;;;;;;5091050;28;20977;-92
2023/10/21 01:00:22;;;;;;;2.40;2.10;;;;;;;;;;5092771;28;20505;-92
2023/10/21 01:02:50;;;;;;;3.10;1.70;;;;;;;;;;5095489;28;20451;-92
2023/10/21 01:05:19;;;;;;;3.90;1.77;;;;;;;;;;5099273;28;20471;-92
2023/10/21 01:07:46;;;;;;;3.90;2.40;;;;;;;;;;5091701;28;20476;-92
2023/10/21 01:10:13;;;;;;;2.33;1.70;;;;;;;;;;5091791;28;20500;-93
2023/10/21 01:12:41;;;;;;;3.03;1.40;;;;;;;;;;5101284;28;20505;-92
2023/10/21 01:15:09;;;;;;;3.50;1.57;;;;;;;;;;5096876;28;20673;-91
2023/10/21 01:17:36;;;;;;;2.00;1.43;;;;;;;;;;5091627;28;20734;-92
2023/10/21 01:20:06;;;;;;;3.93;1.30;;;;;;;;;;5089592;28;20939;-91
2023/10/21 01:22:34;;;;;;;2.00;1.10;;;;;;;;;;5095862;28;20467;-91
2023/10/21 01:25:04;;;;;;;2.03;1.33;;;;;;;;;;5095686;28;20985;-92
2023/10/21 01:27:31;;;;;;;2.80;1.73;;;;;;;;;;5104872;28;20435;-91
2023/10/21 01:29:58;;;;;;;2.43;1.93;;;;;;;;;;5100165;28;20474;-91
2023/10/21 01:32:26;;;;;;;5.60;2.50;;;;;;;;;;5101911;28;20452;-92
2023/10/21 01:34:53;;;;;;;2.57;1.73;;;;;;;;;;5100521;28;20814;-92
2023/10/21 01:37:21;;;;;;;3.43;1.70;;;;;;;;;;5094468;28;20432;-92
2023/10/21 01:39:48;;;;;;;2.20;1.80;;;;;;;;;;5096858;28;20443;-92
2023/10/21 01:42:17;;;;;;;2.67;1.73;;;;;;;;;;5096145;28;20444;-92
2023/10/21 01:44:44;;;;;;;2.10;1.50;;;;;;;;;;5099157;28;20483;-92
2023/10/21 01:47:12;;;;;;;2.50;1.60;;;;;;;;;;5094257;28;20439;-92
2023/10/21 01:49:39;;;;;;;3.80;1.10;;;;;;;;;;5099828;28;20439;-92
2023/10/21 01:52:07;;;;;;;3.30;1.40;;;;;;;;;;5088914;28;20823;-92
2023/10/21 01:54:34;;;;;;;3.07;1.20;;;;;;;;;;5093958;28;20459;-93
2023/10/21 01:57:01;;;;;;;2.60;2.00;;;;;;;;;;5089812;28;20449;-92
2023/10/21 01:59:30;;;;;;;2.13;1.40;;;;;;;;;;5089876;28;21014;-92
2023/10/21 02:01:57;;;;;;;3.60;1.40;;;;;;;;;;5088823;28;20444;-92
2023/10/21 02:04:25;;;;;;;5.37;1.50;;;;;;;;;;5093826;28;20480;-91
2023/10/21 02:06:52;;;;;;;2.77;2.10;;;;;;;;;;5095694;28;20509;-92
2023/10/21 02:09:20;;;;;;;3.13;2.07;;;;;;;;;;5093631;28;20478;-92
2023/10/21 02:11:48;;;;;;;2.33;2.10;;;;;;;;;;5089252;28;20471;-92
2023/10/21 02:14:15;;;;;;;2.80;1.80;;;;;;;;;;5093099;28;21025;-92
2023/10/21 02:16:44;;;;;;;1.60;1.33;;;;;;;;;;5084538;28;20893;-92
2023/10/21 02:19:11;;;;;;;4.00;1.30;;;;;;;;;;5090208;28;20961;-92
2023/10/21 02:21:38;;;;;;;2.70;1.40;;;;;;;;;;5089721;28;20801;-92
2023/10/21 02:24:06;;;;;;;2.50;1.53;;;;;;;;;;5096653;28;20467;-92
2023/10/21 02:26:33;;;;;;;1.70;1.20;;;;;;;;;;5093992;28;20868;-92
2023/10/21 02:29:01;;;;;;;1.90;1.20;;;;;;;;;;5088157;28;20509;-93
2023/10/21 02:31:28;;;;;;;4.13;1.20;;;;;;;;;;5090752;28;20943;-92
2023/10/21 02:33:57;;;;;;;3.10;1.20;;;;;;;;;;5097117;28;20439;-92
2023/10/21 02:36:25;;;;;;;2.20;1.87;;;;;;;;;;5090006;28;20457;-92
2023/10/21 02:38:53;;;;;;;4.90;3.93;;;;;;;;;;5092016;28;20448;-92
2023/10/21 02:41:20;;;;;;;3.30;2.03;;;;;;;;;;5087073;28;20516;-92
2023/10/21 02:43:47;;;;;;;7.67;3.30;;;;;;;;;;5089366;28;20892;-91
2023/10/21 02:46:15;;;;;;;3.23;2.93;;;;;;;;;;5088481;28;20525;-92
2023/10/21 02:48:43;;;;;;;3.80;3.00;;;;;;;;;;5093241;28;20448;-92
2023/10/21 02:51:13;;;;;;;3.60;3.30;;;;;;;;;;5088105;28;20523;-91
2023/10/21 02:53:40;;;;;;;4.27;2.90;;;;;;;;;;5093694;28;20432;-92
2023/10/21 02:56:08;;;;;;;3.10;1.87;;;;;;;;;;5093173;28;20464;-92
2023/10/21 02:58:36;;;;;;;2.60;2.40;;;;;;;;;;5090617;28;20950;-92
2023/10/21 03:01:05;;;;;;;3.40;2.57;;;;;;;;;;5092205;28;20444;-92
2023/10/21 03:03:32;;;;;;;2.80;2.27;;;;;;;;;;5089296;28;20498;-92
2023/10/21 03:05:59;;;;;;;2.03;1.43;;;;;;;;;;5093026;28;20532;-93
2023/10/21 03:08:28;;;;;;;2.50;1.37;;;;;;;;;;5092105;28;20443;-92
2023/10/21 03:10:55;;;;;;;6.80;1.53;;;;;;;;;;5085499;28;20502;-93
2023/10/21 03:13:23;;;;;;;2.97;1.20;;;;;;;;;;5088606;28;20451;-92
2023/10/21 03:15:50;;;;;;;2.50;1.87;;;;;;;;;;5085153;28;20460;-93
2023/10/21 03:18:17;;;;;;;3.20;1.90;;;;;;;;;;5092306;28;20623;-92
2023/10/21 03:20:45;;;;;;;3.80;1.70;;;;;;;;;;5083934;28;20437;-92
2023/10/21 03:23:12;;;;;;;2.37;1.20;;;;;;;;;;5088412;28;20448;-91
2023/10/21 03:25:41;;;;;;;4.33;2.00;;;;;;;;;;5087223;28;20503;-92
2023/10/21 03:28:08;;;;;;;3.03;1.33;;;;;;;;;;5092463;28;20473;-92
2023/10/21 03:30:35;;;;;;;2.10;1.50;;;;;;;;;;5088571;28;20477;-92
2023/10/21 03:33:03;;;;;;;2.53;1.23;;;;;;;;;;5087315;28;20447;-93
2023/10/21 03:35:31;;;;;;;1.67;0.97;;;;;;;;;;5092079;28;20463;-92
2023/10/21 03:37:59;;;;;;;3.73;1.23;;;;;;;;;;5090669;28;20481;-93
2023/10/21 03:40:29;;;;;;;1.80;1.10;;;;;;;;;;5091297;28;20447;-92
2023/10/21 03:42:58;;;;;;;2.00;1.00;;;;;;;;;;5091440;28;20463;-92
2023/10/21 03:45:25;;;;;;;3.20;1.00;;;;;;;;;;5086879;28;20862;-93
2023/10/21 03:47:52;;;;;;;3.17;1.47;;;;;;;;;;5088542;28;20508;-92
2023/10/21 03:50:19;;;;;;;2.23;1.00;;;;;;;;;;5092195;28;20498;-92
2023/10/21 03:52:47;;;;;;;1.70;0.80;;;;;;;;;;5088849;28;20465;-92
2023/10/21 03:55:14;;;;;;;3.63;2.30;;;;;;;;;;5085232;28;20461;-92
2023/10/21 03:57:42;;;;;;;2.20;1.70;;;;;;;;;;5088946;28;20448;-92
2023/10/21 04:02:57;;;;;;;3.70;2.00;;;;;;;;;;5116584;28;20434;-92
2023/10/21 04:05:25;;;;;;;6.00;2.00;;;;;;;;;;5103063;28;20499;-92
2023/10/21 04:07:53;;;;;;;2.90;2.00;;;;;;;;;;5101981;28;20806;-92
2023/10/21 04:10:21;;;;;;;3.27;1.90;;;;;;;;;;5091382;28;21026;-92
2023/10/21 04:12:49;;;;;;;5.00;2.37;;;;;;;;;;5090683;28;20448;-92
2023/10/21 04:15:17;;;;;;;2.60;2.13;;;;;;;;;;5090949;28;20978;-91
2023/10/21 04:17:47;;;;;;;3.10;2.07;;;;;;;;;;5081583;28;20931;-91
2023/10/21 04:20:16;;;;;;;2.63;2.43;;;;;;;;;;5087943;28;20443;-92
2023/10/21 04:22:43;;;;;;;3.40;3.00;;;;;;;;;;5095860;28;20448;-91
2023/10/21 04:25:11;;;;;;;4.60;3.17;;;;;;;;;;5085323;28;20479;-92
2023/10/21 04:27:38;;;;;;;2.90;2.03;;;;;;;;;;5086404;28;20572;-91
2023/10/21 04:30:07;;;;;;;2.37;1.83;;;;;;;;;;5084497;28;20845;-91
2023/10/21 04:32:36;;;;;;;2.60;1.60;;;;;;;;;;5088173;28;20435;-90
2023/10/21 04:35:04;;;;;;;4.57;3.93;;;;;;;;;;5085355;28;20520;-92
2023/10/21 04:37:32;;;;;;;3.30;2.67;;;;;;;;;;5091006;28;20526;-92
2023/10/21 04:39:59;;;;;;;3.60;2.90;;;;;;;;;;5092974;28;20436;-92
2023/10/21 04:42:27;;;;;;;3.90;2.73;;;;;;;;;;5088144;28;20444;-93
2023/10/21 04:44:54;;;;;;;3.67;2.53;;;;;;;;;;5089921;28;20558;-92
2023/10/21 04:47:21;;;;;;;5.90;2.47;;;;;;;;;;5092375;28;20436;-92
2023/10/21 04:49:50;;;;;;;4.07;3.50;;;;;;;;;;5093251;28;20451;-92
2023/10/21 04:52:18;;;;;;;3.30;2.90;;;;;;;;;;5097788;28;20497;-91
2023/10/21 04:54:45;;;;;;;3.03;2.67;;;;;;;;;;5093473;28;20464;-92
2023/10/21 04:57:13;;;;;;;6.97;6.23;;;;;;;;;;5088040;28;20439;-92
2023/10/21 04:59:40;;;;;;;5.47;4.83;;;;;;;;;;5090427;28;20474;-92
2023/10/21 05:02:07;;;;;;;8.30;7.50;;;;;;;;;;5092016;28;20428;-91
2023/10/21 05:04:35;;;;;;;7.87;7.07;;;;;;;;;;5084651;28;20483;-92
2023/10/21 05:07:03;;;;;;;7.53;6.70;;;;;;;;;;5084411;28;20483;-92
2023/10/21 05:09:31;;;;;;;4.17;3.70;;;;;;;;;;5097462;28;20452;-92
2023/10/21 05:11:59;;;;;;;5.60;5.00;;;;;;;;;;5090128;28;20557;-92
2023/10/21 05:14:27;;;;;;;3.47;2.60;;;;;;;;;;5089594;28;20463;-92
2023/10/21 05:16:54;;;;;;;2.73;1.47;;;;;;;;;;5093790;28;20550;-92
2023/10/21 05:19:22;;;;;;;2.20;1.60;;;;;;;;;;5092687;28;20443;-92
2023/10/21 05:21:49;;;;;;;4.70;2.53;;;;;;;;;;5089228;28;20459;-91
2023/10/21 05:24:18;;;;;;;3.67;3.10;;;;;;;;;;5104846;28;20424;-92
2023/10/21 05:26:45;;;;;;;4.87;3.63;;;;;;;;;;5090519;28;20444;-92
2023/10/21 05:29:13;;;;;;;3.97;3.57;;;;;;;;;;5096310;28;20999;-92
2023/10/21 05:31:40;;;;;;;7.33;6.63;;;;;;;;;;5095516;28;20480;-91
2023/10/21 05:34:08;;;;;;;3.33;2.57;;;;;;;;;;5089896;28;20488;-92
2023/10/21 05:36:35;;;;;;;4.20;2.30;;;;;;;;;;5094704;28;20943;-91
2023/10/21 05:39:04;;;;;;;4.60;3.47;;;;;;;;;;5093192;28;20441;-92
2023/10/21 05:41:32;;;;;;;4.87;4.37;;;;;;;;;;5092235;28;20466;-92
2023/10/21 05:44:00;;;;;;;4.77;3.70;;;;;;;;;;5095352;28;20799;-92
2023/10/21 05:46:27;;;;;;;4.37;3.97;;;;;;;;;;5096359;28;20477;-92
2023/10/21 05:48:54;;;;;;;5.93;4.10;;;;;;;;;;5095508;28;20485;-92
2023/10/21 05:51:22;;;;;;;3.53;2.80;;;;;;;;;;5099850;28;20492;-91
2023/10/21 05:53:49;;;;;;;2.73;2.13;;;;;;;;;;5094969;28;20451;-92
2023/10/21 05:56:16;;;;;;;2.80;2.10;;;;;;;;;;5092453;28;20457;-91
2023/10/21 05:58:45;;;;;;;3.03;2.60;;;;;;;;;;5091931;28;20864;-92
2023/10/21 06:01:12;;;;;;;4.80;3.70;;;;;;;;;;5096753;28;20501;-92
2023/10/21 06:03:40;;;;;;;4.10;3.20;;;;;;;;;;5107062;28;20498;-92
2023/10/21 06:06:07;;;;;;;4.07;3.37;;;;;;;;;;5100286;28;21115;-92
2023/10/21 06:08:35;;;;;;;3.47;3.13;;;;;;;;;;5095751;28;20500;-92
2023/10/21 06:11:02;;;;;;;5.33;3.20;;;;;;;;;;5091365;28;20444;-92
2023/10/21 06:13:30;;;;;;;3.57;3.00;;;;;;;;;;5096770;28;20821;-92
2023/10/21 06:15:58;;;;;;;7.13;3.37;;;;;;;;;;5096616;28;20517;-92
2023/10/21 06:18:26;;;;;;;3.67;3.20;;;;;;;;;;5090151;28;20452;-91
2023/10/21 06:20:53;;;;;;;3.57;2.80;;;;;;;;;;5103929;28;20436;-91
2023/10/21 06:23:21;;;;;;;4.50;4.10;;;;;;;;;;5099666;28;20447;-91
2023/10/21 06:25:49;;;;;;;2.70;2.20;;;;;;;;;;5094895;28;20479;-92
2023/10/21 06:28:16;;;;;;;3.60;2.30;;;;;;;;;;5095144;28;20514;-92
2023/10/21 06:30:44;;;;;;;3.00;2.27;;;;;;;;;;5100174;28;20446;-92
2023/10/21 06:33:13;;;;;;;4.10;2.53;;;;;;;;;;5095311;28;20467;-91
2023/10/21 06:35:40;;;;;;;3.63;2.60;;;;;;;;;;5092976;28;20888;-92
2023/10/21 06:38:08;;;;;;;3.83;3.43;;;;;;;;;;5093081;28;20511;-91
2023/10/21 06:40:36;;;;;;;3.80;3.30;;;;;;;;;;5095223;28;20443;-92
2023/10/21 06:43:03;;;;;;;5.80;4.13;;;;;;;;;;5092041;28;20457;-92
2023/10/21 06:45:31;;;;;;;6.80;6.20;;;;;;;;;;5092644;28;21086;-92
2023/10/21 06:48:01;;;;;;;6.57;5.50;;;;;;;;;;5098492;28;20444;-92
2023/10/21 06:50:30;;;;;;;4.73;4.33;;;;;;;;;;5092328;28;20444;-93
2023/10/21 06:52:57;;;;;;;5.00;4.60;;;;;;;;;;5095383;28;20469;-93
2023/10/21 06:55:25;;;;;;;6.07;4.80;;;;;;;;;;5107321;28;20440;-93
2023/10/21 06:57:52;;;;;;;6.33;5.73;;;;;;;;;;5100017;28;20469;-92
2023/10/21 07:00:20;;;;;;;6.87;6.17;;;;;;;;;;5097694;28;20492;-92
2023/10/21 07:02:47;;;;;;;6.53;5.93;;;;;;;;;;5105772;28;20445;-92
2023/10/21 07:05:15;;;;;;;6.37;5.87;;;;;;;;;;5092724;28;20499;-92
2023/10/21 07:07:46;;;;;;;6.90;6.30;;;;;;;;;;5098012;28;20524;-94
2023/10/21 07:10:13;;;;;;;6.87;5.73;;;;;;;;;;5111141;28;20438;-93
2023/10/21 07:12:41;;;;;;;6.27;5.73;;;;;;;;;;5106548;28;20456;-92
2023/10/21 07:15:09;;;;;;;5.93;5.43;;;;;;;;;;5103053;28;20458;-92
2023/10/21 07:17:37;;;;;;;7.43;6.73;;;;;;;;;;5113487;28;20436;-93
2023/10/21 07:20:05;;;;;;;6.90;6.20;;;;;;;;;;5115766;28;20447;-93
2023/10/21 07:22:32;;;;;;;8.00;7.20;;;;;;;;;;5114802;28;20732;-93
2023/10/21 07:25:01;;;;;;;9.00;8.13;;;;;;;;;;5110721;28;20493;-93
2023/10/21 07:27:28;;;;;;;7.73;7.03;;;;;;;;;;5104435;28;20930;-92
2023/10/21 07:29:56;;;;;;;19.87;18.10;;;;;;;;;;5108381;28;20432;-92
2023/10/21 07:32:24;;;;;;;9.07;8.17;;;;;;;;;;5111617;28;20499;-94
2023/10/21 07:34:52;;;;;;;9.47;8.53;;;;;;;;;;5110477;28;20458;-92
2023/10/21 07:37:19;;;;;;;9.97;8.80;;;;;;;;;;5112765;28;20613;-91
2023/10/21 07:39:46;;;;;;;12.23;11.03;;;;;;;;;;5097275;28;20452;-93
2023/10/21 07:42:15;;;;;;;11.50;10.47;;;;;;;;;;5118903;28;20455;-94
2023/10/21 07:44:42;;;;;;;13.73;12.47;;;;;;;;;;5113652;28;20527;-94
2023/10/21 07:47:10;;;;;;;10.50;9.50;;;;;;;;;;5109305;28;20471;-93
2023/10/21 07:49:38;;;;;;;7.50;6.90;;;;;;;;;;5110893;28;20462;-92
2023/10/21 07:52:05;;;;;;;6.17;5.57;;;;;;;;;;5112480;28;20427;-93
2023/10/21 07:54:34;;;;;;;5.37;4.87;;;;;;;;;;5122208;28;20494;-93
2023/10/21 07:57:01;;;;;;;5.20;4.70;;;;;;;;;;5117766;28;20537;-92
2023/10/21 07:59:30;;;;;;;4.13;3.67;;;;;;;;;;5103382;28;20447;-92
2023/10/21 08:01:57;;;;;;;7.20;6.60;;;;;;;;;;5109180;28;20508;-93
2023/10/21 08:04:25;;;;;;;6.10;5.50;;;;;;;;;;5108820;28;20459;-93
2023/10/21 08:06:52;;;;;;;8.27;5.93;;;;;;;;;;5105141;28;20463;-92
2023/10/21 08:09:20;;;;;;;8.00;7.30;;;;;;;;;;5107456;28;20439;-92
2023/10/21 08:11:48;;;;;;;8.50;5.80;;;;;;;;;;5112878;28;20451;-94
2023/10/21 08:14:15;;;;;;;10.60;9.60;;;;;;;;;;5114370;28;20472;-94
2023/10/21 08:16:44;;;;;;;9.23;8.10;;;;;;;;;;5114593;28;20495;-94
2023/10/21 08:19:12;;;;;;;7.70;6.67;;;;;;;;;;5122841;28;20462;-93
2023/10/21 08:21:40;;;;;;;7.27;6.50;;;;;;;;;;5107269;28;20452;-95
2023/10/21 08:24:08;;;;;;;7.07;6.30;;;;;;;;;;5114676;28;20470;-94
2023/10/21 08:26:36;;;;;;;5.40;4.90;;;;;;;;;;5123347;28;20520;-94
2023/10/21 08:29:03;;;;;;;4.20;3.33;;;;;;;;;;5123373;28;20898;-94
2023/10/21 08:31:31;;;;;;;5.03;3.60;;;;;;;;;;5124839;28;20438;-96
2023/10/21 08:34:00;;;;;;;3.73;3.20;;;;;;;;;;5129925;28;20441;-95
2023/10/21 08:36:27;;;;;;;2.60;1.83;;;;;;;;;;5120211;28;20439;-94
2023/10/21 08:38:55;;;;;;;7.33;4.13;;;;;;;;;;5121925;28;20515;-96
2023/10/21 08:41:22;;;;;;;6.20;5.20;;;;;;;;;;5099762;28;20465;-94
2023/10/21 08:43:50;;;;;;;6.10;5.50;;;;;;;;;;5102213;28;20440;-95
2023/10/21 08:46:18;;;;;;;5.70;5.17;;;;;;;;;;5093859;28;20463;-93
2023/10/21 08:48:47;;;;;;;6.43;4.63;;;;;;;;;;5097437;28;20502;-92
2023/10/21 08:51:17;;;;;;;5.60;5.10;;;;;;;;;;5094799;28;20704;-94
2023/10/21 08:53:46;;;;;;;6.37;5.77;;;;;;;;;;5094779;28;20493;-92
2023/10/21 08:56:13;;;;;;;7.47;5.50;;;;;;;;;;5085603;28;20978;-91
2023/10/21 08:58:41;;;;;;;6.57;5.30;;;;;;;;;;5091343;28;20448;-93
2023/10/21 09:01:08;;;;;;;7.53;4.60;;;;;;;;;;5083100;28;20509;-92
2023/10/21 09:03:36;;;;;;;4.37;3.97;;;;;;;;;;5090879;28;20447;-92
2023/10/21 09:06:05;;;;;;;3.57;3.27;;;;;;;;;;5093499;28;20479;-91
2023/10/21 09:08:35;;;;;;;14.20;11.07;;;;;;;;;;5099652;28;20819;-92
2023/10/21 09:11:06;;;;;;;5.10;3.93;;;;;;;;;;5092232;28;20964;-92
2023/10/21 09:13:34;;;;;;;5.20;4.37;;;;;;;;;;5089575;28;20830;-91
2023/10/21 09:16:04;;;;;;;5.80;5.30;;;;;;;;;;5089918;28;21030;-92
2023/10/21 09:18:31;;;;;;;5.13;4.73;;;;;;;;;;5089562;28;20478;-92
2023/10/21 09:20:59;;;;;;;6.07;4.90;;;;;;;;;;5092137;28;20497;-91
2023/10/21 09:23:27;;;;;;;6.80;6.10;;;;;;;;;;5088432;28;20248;-93
2023/10/21 09:25:56;;;;;;;6.60;6.00;;;;;;;;;;5092023;28;20511;-94
2023/10/21 09:28:24;;;;;;;5.80;5.10;;;;;;;;;;5105244;28;20496;-93
2023/10/21 09:30:58;;;;;;;5.27;4.83;;;;;;;;;;5100288;28;20451;-91
2023/10/21 09:33:26;;;;;;;5.80;5.30;;;;;;;;;;5094552;28;20463;-91
2023/10/21 09:36:03;;;;;;;4.50;4.10;;;;;;;;;;5088853;28;20508;-91
2023/10/21 09:38:36;;;;;;;4.17;3.77;;;;;;;;;;5089500;28;20432;-91
2023/10/21 09:41:07;;;;;;;5.23;4.47;;;;;;;;;;5087748;28;20487;-91
2023/10/21 09:43:37;;;;;;;4.80;3.97;;;;;;;;;;5090834;28;20479;-91
2023/10/21 09:46:05;;;;;;;4.70;4.30;;;;;;;;;;5086651;28;20537;-91
2023/10/21 09:48:35;;;;;;;4.50;4.10;;;;;;;;;;5085153;28;20488;-90
2023/10/21 09:51:06;;;;;;;3.57;3.27;;;;;;;;;;5084274;28;20470;-91
2023/10/21 09:53:38;;;;;;;3.73;3.30;;;;;;;;;;5083734;28;20793;-91
2023/10/21 09:56:07;;;;;;;3.80;3.20;;;;;;;;;;5084623;28;20484;-91
2023/10/21 09:58:35;;;;;;;3.40;3.10;;;;;;;;;;5092206;28;20460;-91
2023/10/21 10:01:05;;;;;;;2.73;2.53;;;;;;;;;;5084056;28;20429;-91
2023/10/21 10:03:34;;;;;;;4.80;2.80;;;;;;;;;;5092249;28;20453;-91
2023/10/21 10:06:03;;;;;;;4.07;3.40;;;;;;;;;;5091559;28;20574;-92
2023/10/21 10:08:34;;;;;;;5.10;3.33;;;;;;;;;;5093350;28;20457;-93
2023/10/21 10:11:03;;;;;;;3.80;3.17;;;;;;;;;;5095492;28;20509;-92
2023/10/21 10:13:34;;;;;;;4.83;4.13;;;;;;;;;;5096054;28;20444;-92
2023/10/21 10:16:19;;;;;;;8.20;4.33;;;;;;;;;;5096690;28;20521;-91
2023/10/21 10:18:49;;;;;;;3.70;3.17;;;;;;;;;;5084345;28;20455;-91
2023/10/21 10:21:17;;;;;;;3.77;2.77;;;;;;;;;;5093080;28;20444;-91
2023/10/21 10:23:50;;;;;;;4.87;3.07;;;;;;;;;;5107285;28;20443;-93
2023/10/21 10:26:17;;;;;;;4.40;2.67;;;;;;;;;;5128738;28;20476;-92
2023/10/21 10:28:47;;;;;;;3.83;2.67;;;;;;;;;;5089640;28;20456;-92
2023/10/21 10:31:17;;;;;;;3.70;3.23;;;;;;;;;;5092549;28;20448;-91
2023/10/21 10:33:51;;;;;;;3.07;2.70;;;;;;;;;;5092491;28;20449;-90
2023/10/21 10:36:28;;;;;;;4.83;3.20;;;;;;;;;;5097736;28;21043;-91
2023/10/21 10:38:55;;;;;;;3.87;3.07;;;;;;;;;;5102145;28;20509;-91
2023/10/21 10:41:23;;;;;;;4.00;3.10;;;;;;;;;;5053826;28;1242106;-91
2023/10/21 10:43:54;;;;;;;3.57;3.27;;;;;;;;;;5098753;28;20201;-90
2023/10/21 10:46:22;;;;;;;3.40;2.90;;;;;;;;;;5098391;28;20507;-90
2023/10/21 10:48:50;;;;;;;3.73;3.03;;;;;;;;;;5098200;28;20443;-90
2023/10/21 10:51:17;;;;;;;4.27;3.30;;;;;;;;;;5097404;28;20861;-89
2023/10/21 10:53:46;;;;;;;4.70;3.47;;;;;;;;;;5097530;28;20945;-90
2023/10/21 10:56:18;;;;;;;5.20;3.17;;;;;;;;;;5097649;28;20463;-90
2023/10/21 10:58:46;;;;;;;4.30;3.83;;;;;;;;;;5096519;28;20455;-90
2023/10/21 11:01:25;;;;;;;3.40;3.10;;;;;;;;;;5094691;28;20470;-90
2023/10/21 11:03:56;;;;;;;4.17;3.10;;;;;;;;;;5093312;28;20447;-90
2023/10/21 11:06:26;;;;;;;3.60;3.20;;;;;;;;;;5095638;28;20483;-91
2023/10/21 11:08:53;;;;;;;4.70;2.90;;;;;;;;;;5094623;28;20870;-90
2023/10/21 11:11:21;;;;;;;4.60;4.03;;;;;;;;;;5090394;28;20487;-91
2023/10/21 11:13:48;;;;;;;4.67;3.57;;;;;;;;;;5094587;28;20518;-90
2023/10/21 11:16:18;;;;;;;4.00;3.03;;;;;;;;;;5095010;28;20517;-90
2023/10/21 11:18:47;;;;;;;3.20;2.77;;;;;;;;;;5095570;28;20486;-90
2023/10/21 11:21:14;;;;;;;3.57;3.00;;;;;;;;;;5091781;28;20443;-90
2023/10/21 11:23:41;;;;;;;4.40;3.10;;;;;;;;;;5094410;28;20502;-92
2023/10/21 11:26:09;;;;;;;5.53;3.60;;;;;;;;;;5095622;28;20240;-90
2023/10/21 11:28:37;;;;;;;4.60;3.07;;;;;;;;;;5093672;28;20505;-90
2023/10/21 11:31:05;;;;;;;3.90;3.50;;;;;;;;;;5095327;28;20535;-91
2023/10/21 11:33:33;;;;;;;5.83;3.07;;;;;;;;;;5095286;28;20535;-91
2023/10/21 11:36:03;;;;;;;3.20;2.90;;;;;;;;;;5097719;28;20483;-91
2023/10/21 11:38:30;;;;;;;3.37;2.37;;;;;;;;;;5096051;28;20524;-90
2023/10/21 11:40:59;;;;;;;5.23;2.63;;;;;;;;;;5096809;28;20524;-90
2023/10/21 11:43:28;;;;;;;4.23;3.40;;;;;;;;;;5103084;28;20444;-91
2023/10/21 11:45:57;;;;;;;4.63;3.40;;;;;;;;;;5098861;28;20462;-90
2023/10/21 11:48:27;;;;;;;5.37;2.83;;;;;;;;;;5099326;28;20471;-91
2023/10/21 11:50:55;;;;;;;4.87;2.80;;;;;;;;;;5096825;28;20443;-90
2023/10/21 11:53:24;;;;;;;3.33;2.67;;;;;;;;;;5090797;28;20959;-91
2023/10/21 11:56:50;;;;;;;8.07;2.97;;;;;;;;;;5103688;28;20535;-91
2023/10/21 12:13:24;;;;;;;4.10;2.67;;;;;;;;;;5118377;28;20931;-91
2023/10/21 12:16:16;;;;;;;3.47;2.00;;;;;;;;;;5106721;28;20468;-91
2023/10/21 12:30:39;;;;;;;2.30;1.77;;;;;;;;;;5101371;28;20431;-92
2023/10/21 12:33:19;;;;;;;2.57;2.03;;;;;;;;;;5106224;28;20467;-92
2023/10/21 12:36:10;;;;;;;2.70;1.70;;;;;;;;;;5096685;28;20516;-91
2023/10/21 12:38:40;;;;;;;3.90;2.20;;;;;;;;;;5095813;28;20475;-93
2023/10/21 12:41:20;;;;;;;2.50;1.97;;;;;;;;;;5094679;28;20462;-92
2023/10/21 12:43:48;;;;;;;3.43;2.13;;;;;;;;;;5086032;28;20533;-93
2023/10/21 12:46:18;;;;;;;2.23;1.40;;;;;;;;;;5091969;28;20464;-92
2023/10/21 12:48:51;;;;;;;2.53;1.50;;;;;;;;;;5091627;28;20560;-92
2023/10/21 12:51:19;;;;;;;2.30;1.57;;;;;;;;;;5089467;28;20440;-91
2023/10/21 12:53:46;;;;;;;2.87;2.20;;;;;;;;;;5095034;28;20444;-92
2023/10/21 12:56:14;;;;;;;2.40;1.50;;;;;;;;;;5093785;28;20466;-89
2023/10/21 12:58:42;;;;;;;3.30;1.73;;;;;;;;;;5087385;28;20865;-89
2023/10/21 13:01:12;;;;;;;3.80;1.90;;;;;;;;;;5092274;28;20493;-89
2023/10/21 13:03:40;;;;;;;3.30;1.97;;;;;;;;;;5096321;28;20455;-91
2023/10/21 13:06:07;;;;;;;3.10;1.83;;;;;;;;;;5090750;28;20808;-92
2023/10/21 13:08:35;;;;;;;4.93;1.80;;;;;;;;;;5088387;28;20940;-91
2023/10/21 13:11:03;;;;;;;4.60;1.90;;;;;;;;;;5100723;28;20443;-92
2023/10/21 13:13:35;;;;;;;2.53;1.80;;;;;;;;;;5096149;28;20452;-91
2023/10/21 13:16:03;;;;;;;3.53;1.63;;;;;;;;;;5086129;28;20814;-92
2023/10/21 13:18:33;;;;;;;2.70;2.03;;;;;;;;;;5097294;28;20551;-92
2023/10/21 13:21:01;;;;;;;3.50;2.80;;;;;;;;;;5092969;28;20953;-91
2023/10/21 13:23:28;;;;;;;3.17;2.60;;;;;;;;;;5089937;28;20452;-91
2023/10/21 13:25:55;;;;;;;2.90;2.40;;;;;;;;;;5090906;28;20456;-91
2023/10/21 13:28:23;;;;;;;3.30;1.90;;;;;;;;;;5092141;28;20472;-91
2023/10/21 13:30:50;;;;;;;3.53;2.50;;;;;;;;;;5103314;28;20862;-91
2023/10/21 13:33:17;;;;;;;6.57;2.43;;;;;;;;;;5107316;28;20435;-92
2023/10/21 13:35:46;;;;;;;3.30;2.20;;;;;;;;;;5094003;28;20520;-91
2023/10/21 13:38:15;;;;;;;3.50;2.00;;;;;;;;;;5086916;28;20497;-91
2023/10/21 13:40:44;;;;;;;3.00;2.40;;;;;;;;;;5089691;28;20462;-91
2023/10/21 13:43:13;;;;;;;3.27;2.90;;;;;;;;;;5096580;28;20869;-92
2023/10/21 13:45:41;;;;;;;3.80;2.30;;;;;;;;;;5100186;28;20516;-91
2023/10/21 13:48:09;;;;;;;3.40;2.63;;;;;;;;;;5100049;28;20502;-91
2023/10/21 13:50:37;;;;;;;5.07;2.70;;;;;;;;;;5099110;28;20557;-91
2023/10/21 13:53:14;;;;;;;3.57;2.77;;;;;;;;;;5097140;28;20534;-91
2023/10/21 13:55:42;;;;;;;5.10;3.00;;;;;;;;;;5098740;28;20507;-91
2023/10/21 13:58:10;;;;;;;4.27;2.77;;;;;;;;;;5102670;28;20490;-93
2023/10/21 14:00:38;;;;;;;3.10;2.23;;;;;;;;;;5097566;28;20447;-91
2023/10/21 14:03:09;;;;;;;3.03;2.27;;;;;;;;;;5103009;28;20451;-91
2023/10/21 14:05:38;;;;;;;2.87;2.47;;;;;;;;;;5093060;28;20482;-91
2023/10/21 14:08:10;;;;;;;7.60;1.77;;;;;;;;;;5093957;28;20529;-91
2023/10/21 14:10:38;;;;;;;2.40;1.20;;;;;;;;;;5098303;28;20950;-91
2023/10/21 14:13:05;;;;;;;5.53;1.33;;;;;;;;;;5100360;28;20543;-91
2023/10/21 14:15:33;;;;;;;3.70;2.10;;;;;;;;;;5098953;28;20891;-91
2023/10/21 14:18:00;;;;;;;3.10;1.80;;;;;;;;;;5097600;28;20531;-91
2023/10/21 14:20:28;;;;;;;3.17;2.00;;;;;;;;;;5096839;28;20551;-91
2023/10/21 14:22:55;;;;;;;3.20;2.30;;;;;;;;;;5097154;28;20448;-91
2023/10/21 14:25:25;;;;;;;3.90;1.67;;;;;;;;;;5095235;28;20533;-91
2023/10/21 14:27:52;;;;;;;4.37;2.40;;;;;;;;;;5094265;28;20468;-89
2023/10/21 14:30:19;;;;;;;2.30;1.67;;;;;;;;;;5108702;28;20766;-89
2023/10/21 14:32:48;;;;;;;2.13;1.30;;;;;;;;;;5107558;28;20780;-89
2023/10/21 14:35:15;;;;;;;2.30;1.17;;;;;;;;;;5102667;28;20531;-90
2023/10/21 14:37:42;;;;;;;2.97;1.40;;;;;;;;;;5090922;28;20486;-89
2023/10/21 14:40:11;;;;;;;2.20;1.43;;;;;;;;;;5100108;28;20975;-90
2023/10/21 14:42:40;;;;;;;2.07;1.27;;;;;;;;;;5108146;28;21000;-91
2023/10/21 14:45:08;;;;;;;4.90;1.50;;;;;;;;;;5107029;28;20460;-90
2023/10/21 14:47:36;;;;;;;2.00;1.43;;;;;;;;;;5095967;28;20558;-89
2023/10/21 14:50:05;;;;;;;3.03;1.30;;;;;;;;;;5099223;28;20439;-89
2023/10/21 14:52:33;;;;;;;1.80;1.20;;;;;;;;;;5099939;28;20537;-89
2023/10/21 14:55:00;;;;;;;2.00;1.13;;;;;;;;;;5091097;28;20556;-89
2023/10/21 14:57:28;;;;;;;10.43;7.53;;;;;;;;;;5091851;28;20431;-89
2023/10/21 14:59:58;;;;;;;10.43;7.90;;;;;;;;;;5100213;28;20952;-89
2023/10/21 15:02:26;;;;;;;3.50;2.80;;;;;;;;;;5104057;28;20427;-90
2023/10/21 15:04:54;;;;;;;3.20;1.90;;;;;;;;;;5130925;28;20462;-90
2023/10/21 15:07:21;;;;;;;2.50;1.60;;;;;;;;;;5111596;28;20501;-91
2023/10/21 15:09:49;;;;;;;2.90;1.87;;;;;;;;;;5113074;28;20443;-90
2023/10/21 15:12:17;;;;;;;4.10;2.40;;;;;;;;;;5100459;28;20451;-90
2023/10/21 15:14:45;;;;;;;3.40;2.23;;;;;;;;;;5104360;28;20535;-90
2023/10/21 15:17:14;;;;;;;7.90;7.20;;;;;;;;;;5103699;28;20455;-89
2023/10/21 15:19:42;;;;;;;18.30;16.70;;;;;;;;;;5093244;28;20450;-90